Time;durP1;ratioP1;P1;durP2;ratioP2;P2;SDS_P1;SDS_P2;PMS_P1;PMS_P2;Temp;Humidity;BMP_temperature;BMP_pressure;BME280_temperature;BME280_humidity;BME280_pressure;Samples;Min_cycle;Max_cycle;Signal;HPM_P1;HPM_P2
2022/10/29 00:00:54;;;;;;;3.53;1.93;;;;;;;6.43;82.62;96805.33;1706377;83;21038;-62
2022/10/29 00:03:24;;;;;;;3.13;1.97;;;;;;;6.49;82.85;96808.03;1709858;83;21627;-63
2022/10/29 00:05:58;;;;;;;7.97;2.13;;;;;;;6.46;82.41;96803.62;1712825;83;21034;-63
2022/10/29 00:08:26;;;;;;;4.13;2.10;;;;;;;6.53;82.54;96795.44;1711666;83;21608;-62
2022/10/29 00:10:53;;;;;;;2.43;1.73;;;;;;;6.62;82.50;96805.19;1702849;83;21033;-62
2022/10/29 00:13:20;;;;;;;5.43;2.77;;;;;;;6.60;81.93;96801.65;1705431;83;21504;-62
2022/10/29 00:15:46;;;;;;;3.50;2.60;;;;;;;6.51;81.86;96803.70;1705349;83;21066;-62
2022/10/29 00:18:13;;;;;;;4.97;2.30;;;;;;;6.37;81.37;96801.27;1705190;83;21018;-62
2022/10/29 00:20:39;;;;;;;2.93;2.10;;;;;;;6.29;81.80;96799.83;1713304;83;21033;-62
2022/10/29 00:23:06;;;;;;;4.30;1.80;;;;;;;6.28;82.27;96798.08;1711158;83;21117;-62
2022/10/29 00:25:33;;;;;;;6.13;2.57;;;;;;;6.20;82.75;96800.97;1700903;83;21070;-62
2022/10/29 00:27:59;;;;;;;4.83;2.17;;;;;;;6.13;82.89;96799.99;1716016;83;21022;-63
2022/10/29 00:30:26;;;;;;;3.50;2.50;;;;;;;6.05;83.72;96798.55;1706609;83;21054;-63
2022/10/29 00:32:52;;;;;;;4.73;3.20;;;;;;;6.01;83.35;96805.00;1705226;83;21312;-63
2022/10/29 00:35:19;;;;;;;4.43;2.07;;;;;;;6.02;83.24;96794.56;1706782;83;21049;-63
2022/10/29 00:37:45;;;;;;;3.50;1.77;;;;;;;6.02;82.94;96797.59;1702539;83;21018;-63
2022/10/29 00:40:12;;;;;;;3.30;2.30;;;;;;;6.04;83.04;96797.20;1712246;83;21077;-63
2022/10/29 00:42:39;;;;;;;4.97;2.97;;;;;;;6.03;82.55;96796.75;1706556;83;20981;-63
2022/10/29 00:45:14;;;;;;;10.17;4.67;;;;;;;5.98;82.83;96794.05;1706071;83;21077;-62
2022/10/29 00:47:43;;;;;;;9.17;4.00;;;;;;;5.86;83.04;96797.70;1711401;83;21050;-63
2022/10/29 00:50:13;;;;;;;28.77;8.70;;;;;;;5.73;82.35;96791.35;1704117;83;21094;-62
2022/10/29 00:52:44;;;;;;;8.17;2.13;;;;;;;5.68;82.75;96789.50;1706464;83;21516;-62
2022/10/29 00:55:14;;;;;;;14.07;2.00;;;;;;;5.72;82.86;96797.45;1712077;83;21046;-62
2022/10/29 00:57:47;;;;;;;3.07;1.77;;;;;;;5.81;83.24;96788.88;1717176;83;21129;-62
2022/10/29 01:00:17;;;;;;;15.38;5.17;;;;;;;5.86;83.24;96789.41;1721983;83;21088;-63
2022/10/29 01:02:44;;;;;;;55.70;19.00;;;;;;;5.85;83.79;96785.04;1707920;83;21006;-62
2022/10/29 01:05:16;;;;;;;9.63;4.33;;;;;;;5.82;83.16;96786.30;1704045;83;21017;-63
2022/10/29 01:07:43;;;;;;;7.63;3.17;;;;;;;5.78;82.37;96778.35;1710145;83;20986;-62
2022/10/29 01:10:11;;;;;;;12.33;3.93;;;;;;;5.77;82.92;96780.49;1706699;83;21508;-62
2022/10/29 01:13:35;;;;;;;4.43;2.10;;;;;;;5.79;83.55;96786.22;1705417;83;21772;-63
2022/10/29 01:16:24;;;;;;;4.30;1.70;;;;;;;5.78;83.58;96773.11;1704237;83;21046;-63
2022/10/29 01:19:18;;;;;;;9.40;3.87;;;;;;;5.82;83.60;96777.13;1705648;83;21010;-62
2022/10/29 01:22:25;;;;;;;15.15;5.10;;;;;;;5.88;83.83;96779.41;1720976;83;21030;-62
2022/10/29 01:25:17;;;;;;;12.50;4.10;;;;;;;5.83;83.38;96771.03;1705920;83;21070;-63
2022/10/29 01:28:04;;;;;;;91.47;29.53;;;;;;;5.79;82.94;96762.64;1715257;83;21045;-63
2022/10/29 01:30:56;;;;;;;98.07;28.83;;;;;;;5.67;82.78;96762.44;1711013;83;21384;-63
2022/10/29 01:33:37;;;;;;;3.20;1.73;;;;;;;5.61;83.08;96766.23;1717757;83;21034;-62
2022/10/29 01:36:30;;;;;;;4.70;1.53;;;;;;;5.67;83.65;96768.08;1712432;83;21113;-62
2022/10/29 01:39:17;;;;;;;5.43;1.77;;;;;;;5.83;84.06;96760.98;1716016;83;21034;-62
2022/10/29 01:42:03;;;;;;;2.43;1.63;;;;;;;5.93;83.54;96758.98;1706510;83;21099;-62
2022/10/29 01:44:50;;;;;;;16.43;7.00;;;;;;;5.98;83.35;96756.06;1711425;83;21041;-62
2022/10/29 01:47:23;;;;;;;37.77;13.53;;;;;;;5.91;82.57;96763.31;1706163;83;21097;-63
2022/10/29 01:49:58;;;;;;;70.80;24.60;;;;;;;5.77;81.85;96760.45;1721340;83;21532;-62
2022/10/29 01:52:28;;;;;;;38.50;14.57;;;;;;;5.63;81.46;96761.91;1710757;83;21053;-62
2022/10/29 01:54:54;;;;;;;3.93;2.23;;;;;;;5.55;82.22;96762.20;1705830;83;21094;-63
2022/10/29 01:57:34;;;;;;;3.40;2.13;;;;;;;5.55;83.02;96759.15;1716962;83;21046;-63
2022/10/29 02:00:12;;;;;;;2.20;1.60;;;;;;;5.56;83.53;96756.98;1716454;83;21010;-63
2022/10/29 02:02:50;;;;;;;4.80;2.33;;;;;;;5.55;83.23;96756.97;1716704;83;21576;-63
2022/10/29 02:05:40;;;;;;;20.53;7.77;;;;;;;5.57;83.47;96759.20;1718050;83;21038;-63
2022/10/29 02:08:29;;;;;;;19.53;8.60;;;;;;;5.56;83.29;96755.66;1715805;83;21131;-63
2022/10/29 02:11:07;;;;;;;7.43;3.90;;;;;;;5.49;83.37;96751.59;1722815;83;21159;-63
2022/10/29 02:13:45;;;;;;;8.17;3.40;;;;;;;5.37;84.17;96752.25;1710691;83;21041;-62
2022/10/29 02:16:14;;;;;;;4.77;2.50;;;;;;;5.31;84.05;96746.87;1706100;83;21149;-62
2022/10/29 02:18:44;;;;;;;11.13;5.50;;;;;;;5.29;84.93;96744.65;1723065;83;21065;-63
2022/10/29 02:21:17;;;;;;;5.57;2.43;;;;;;;5.28;84.72;96750.31;1716506;83;21073;-62
2022/10/29 02:23:44;;;;;;;2.87;1.60;;;;;;;5.24;85.19;96742.36;1722038;83;21078;-62
2022/10/29 02:26:11;;;;;;;2.70;1.50;;;;;;;5.23;84.85;96744.53;1711791;83;21038;-63
2022/10/29 02:28:38;;;;;;;8.07;3.27;;;;;;;5.25;84.64;96746.33;1714182;83;21530;-62
2022/10/29 02:31:05;;;;;;;8.20;3.33;;;;;;;5.17;84.40;96744.87;1709968;83;21547;-62
2022/10/29 02:33:32;;;;;;;8.73;2.90;;;;;;;5.15;84.02;96743.07;1717415;83;21088;-63
2022/10/29 02:35:59;;;;;;;6.07;1.70;;;;;;;5.15;84.33;96745.69;1711370;83;21026;-63
2022/10/29 02:38:26;;;;;;;18.97;6.13;;;;;;;5.11;85.50;96743.41;1713619;83;21500;-63
2022/10/29 02:40:52;;;;;;;19.73;6.80;;;;;;;5.11;85.12;96748.64;1712022;83;21089;-63
2022/10/29 02:43:19;;;;;;;5.73;1.70;;;;;;;5.10;85.20;96749.51;1715411;83;21050;-62
2022/10/29 02:45:46;;;;;;;2.03;1.20;;;;;;;5.13;84.98;96745.64;1703294;83;21030;-63
2022/10/29 02:48:13;;;;;;;2.57;1.20;;;;;;;5.20;84.87;96732.27;1706546;83;21041;-62
2022/10/29 02:50:39;;;;;;;2.70;1.10;;;;;;;5.28;85.49;96733.30;1716876;83;21038;-62
2022/10/29 02:53:06;;;;;;;16.13;6.63;;;;;;;5.31;85.17;96733.36;1700093;83;21492;-62
2022/10/29 02:55:33;;;;;;;43.57;16.53;;;;;;;5.27;84.63;96729.37;1701779;83;21057;-62
2022/10/29 02:57:59;;;;;;;30.73;11.37;;;;;;;5.30;84.55;96734.66;1704751;83;21116;-62
2022/10/29 03:00:26;;;;;;;18.93;8.20;;;;;;;5.35;84.15;96733.02;1711334;83;21018;-62
2022/10/29 03:02:52;;;;;;;8.93;3.53;;;;;;;5.41;84.20;96730.07;1710995;83;21046;-62
2022/10/29 03:05:19;;;;;;;4.37;1.50;;;;;;;5.49;84.00;96729.34;1711719;83;21129;-62
2022/10/29 03:07:46;;;;;;;3.20;1.40;;;;;;;5.49;84.11;96723.67;1701453;83;21025;-63
2022/10/29 03:10:12;;;;;;;3.47;1.63;;;;;;;5.53;84.38;96725.51;1711290;83;21046;-63
2022/10/29 03:12:39;;;;;;;6.10;2.17;;;;;;;5.52;83.57;96732.01;1705023;83;21026;-62
2022/10/29 03:15:07;;;;;;;8.33;4.73;;;;;;;5.41;83.54;96719.59;1712194;83;21078;-63
2022/10/29 03:17:34;;;;;;;5.80;2.80;;;;;;;5.36;83.79;96724.30;1711891;83;21033;-62
2022/10/29 03:20:01;;;;;;;5.87;1.73;;;;;;;5.48;84.21;96732.83;1709337;83;21039;-63
2022/10/29 03:22:28;;;;;;;1.83;0.80;;;;;;;5.53;83.51;96733.36;1702313;83;21007;-63
2022/10/29 03:24:54;;;;;;;4.33;1.37;;;;;;;5.62;84.19;96734.86;1716526;83;21132;-63
2022/10/29 03:27:21;;;;;;;49.33;15.47;;;;;;;5.59;83.67;96727.35;1706547;83;21119;-63
2022/10/29 03:29:48;;;;;;;73.67;23.33;;;;;;;5.42;82.28;96726.62;1712741;83;21050;-63
2022/10/29 03:32:15;;;;;;;64.63;19.20;;;;;;;5.29;82.91;96723.31;1705402;83;21038;-63
2022/10/29 03:34:41;;;;;;;89.20;31.80;;;;;;;5.17;82.98;96725.24;1705458;83;21507;-63
2022/10/29 03:37:09;;;;;;;100.97;36.50;;;;;;;5.19;83.37;96723.55;1710905;83;21106;-62
2022/10/29 03:39:35;;;;;;;98.27;37.57;;;;;;;5.10;82.42;96718.11;1707783;83;21488;-62
2022/10/29 03:42:02;;;;;;;22.43;8.93;;;;;;;4.99;83.19;96724.44;1711548;83;21065;-62
2022/10/29 03:44:30;;;;;;;15.47;5.80;;;;;;;4.97;83.85;96720.03;1706382;83;21030;-62
2022/10/29 03:46:57;;;;;;;4.27;2.67;;;;;;;5.00;84.41;96724.01;1716946;83;21007;-62
2022/10/29 03:49:23;;;;;;;2.77;1.37;;;;;;;5.08;84.51;96728.09;1702525;83;21117;-62
2022/10/29 03:51:49;;;;;;;2.90;1.20;;;;;;;5.16;84.41;96727.38;1708751;83;21022;-63
2022/10/29 03:54:16;;;;;;;7.63;1.47;;;;;;;5.23;84.28;96721.86;1711700;83;21038;-62
2022/10/29 03:56:43;;;;;;;39.50;11.83;;;;;;;5.28;83.83;96721.96;1713784;83;21046;-63
2022/10/29 03:59:09;;;;;;;66.63;26.77;;;;;;;5.25;83.50;96717.98;1715840;83;21070;-62
2022/10/29 04:01:36;;;;;;;54.63;23.10;;;;;;;5.01;82.92;96715.30;1704947;83;21077;-62
2022/10/29 04:04:03;;;;;;;66.57;31.80;;;;;;;4.78;83.40;96708.27;1711341;83;21089;-63
2022/10/29 04:06:29;;;;;;;69.90;39.70;;;;;;;4.67;83.70;96707.17;1711368;83;21026;-62
2022/10/29 04:08:56;;;;;;;67.90;35.77;;;;;;;4.61;84.46;96711.84;1713193;83;21005;-63
2022/10/29 04:11:23;;;;;;;63.70;34.87;;;;;;;4.62;84.21;96710.98;1716784;83;21034;-63
2022/10/29 04:13:53;;;;;;;13.13;6.57;;;;;;;4.58;84.94;96714.80;1709125;83;21049;-63
2022/10/29 04:16:19;;;;;;;6.57;3.23;;;;;;;4.61;84.73;96706.62;1720575;83;21018;-63
2022/10/29 04:18:47;;;;;;;2.83;1.30;;;;;;;4.72;84.81;96710.34;1699941;83;21344;-62
2022/10/29 04:21:16;;;;;;;6.10;2.37;;;;;;;4.81;85.27;96710.95;1711724;83;21483;-62
2022/10/29 04:23:42;;;;;;;6.33;3.03;;;;;;;4.89;85.51;96714.64;1707169;83;21033;-62
2022/10/29 04:26:09;;;;;;;11.37;5.07;;;;;;;4.95;85.36;96709.95;1723012;83;21082;-62
2022/10/29 04:28:36;;;;;;;19.13;9.97;;;;;;;4.97;84.88;96706.95;1722285;83;21117;-63
2022/10/29 04:31:07;;;;;;;28.60;12.37;;;;;;;4.85;83.72;96712.80;1701321;83;21081;-62
2022/10/29 04:33:34;;;;;;;30.60;15.57;;;;;;;4.86;84.24;96709.75;1714155;83;21029;-63
2022/10/29 04:36:00;;;;;;;35.20;16.33;;;;;;;4.79;82.98;96715.29;1708254;83;21508;-62
2022/10/29 04:38:27;;;;;;;70.53;31.23;;;;;;;4.80;83.69;96717.47;1708793;83;21002;-62
2022/10/29 04:40:58;;;;;;;103.37;46.33;;;;;;;4.80;83.47;96713.55;1709124;83;21061;-63
2022/10/29 04:43:27;;;;;;;88.73;42.20;;;;;;;4.70;83.69;96715.08;1717092;83;21038;-63
2022/10/29 04:45:56;;;;;;;10.57;4.00;;;;;;;4.68;83.30;96715.03;1711461;83;21089;-63
2022/10/29 04:48:26;;;;;;;7.57;3.50;;;;;;;4.75;84.02;96714.32;1717015;83;21520;-63
2022/10/29 04:50:54;;;;;;;4.47;1.00;;;;;;;4.93;84.97;96717.75;1710940;83;21157;-63
2022/10/29 04:53:21;;;;;;;1.50;0.70;;;;;;;4.95;83.82;96719.11;1720084;83;21030;-63
2022/10/29 04:55:48;;;;;;;12.53;5.90;;;;;;;4.98;84.03;96721.78;1711210;83;21074;-63
2022/10/29 04:58:18;;;;;;;23.97;10.20;;;;;;;4.99;84.05;96715.28;1717447;83;21564;-62
2022/10/29 05:00:46;;;;;;;33.07;15.70;;;;;;;4.95;83.71;96716.49;1716834;83;21026;-63
2022/10/29 05:03:12;;;;;;;215.53;96.13;;;;;;;4.91;83.54;96718.17;1706573;83;21103;-63
2022/10/29 05:05:40;;;;;;;299.73;165.07;;;;;;;4.84;83.52;96717.97;1706588;83;21038;-63
2022/10/29 05:08:09;;;;;;;96.67;60.90;;;;;;;4.81;83.35;96728.38;1711815;83;20995;-63
2022/10/29 05:10:38;;;;;;;18.07;10.53;;;;;;;4.83;83.92;96726.25;1709707;83;20990;-62
2022/10/29 05:13:10;;;;;;;54.70;29.97;;;;;;;4.85;84.39;96724.98;1706792;83;21527;-62
2022/10/29 05:15:38;;;;;;;31.50;16.33;;;;;;;4.93;84.40;96726.91;1713340;83;21531;-62
2022/10/29 05:18:06;;;;;;;6.27;3.30;;;;;;;4.95;84.21;96717.80;1717709;83;21053;-63
2022/10/29 05:20:33;;;;;;;21.47;10.17;;;;;;;4.99;84.22;96723.56;1706978;83;21539;-63
2022/10/29 05:23:04;;;;;;;48.83;26.87;;;;;;;5.05;84.64;96723.68;1705076;83;21041;-63
2022/10/29 05:25:35;;;;;;;50.70;28.13;;;;;;;5.01;83.52;96720.53;1712156;83;21049;-62
2022/10/29 05:28:10;;;;;;;43.73;22.00;;;;;;;4.88;83.85;96711.55;1716014;83;21041;-62
2022/10/29 05:30:37;;;;;;;36.03;19.80;;;;;;;4.83;83.44;96716.22;1716899;83;21046;-63
2022/10/29 05:33:08;;;;;;;8.43;4.17;;;;;;;4.85;84.15;96714.09;1716662;83;21117;-62
2022/10/29 05:35:36;;;;;;;29.53;16.70;;;;;;;4.94;84.83;96714.73;1716459;83;21037;-63
2022/10/29 05:38:03;;;;;;;38.83;22.50;;;;;;;4.92;84.66;96726.46;1713763;83;21058;-63
2022/10/29 05:40:31;;;;;;;26.90;17.43;;;;;;;4.91;84.45;96727.72;1717192;83;21077;-63
2022/10/29 05:42:57;;;;;;;22.57;15.63;;;;;;;4.85;84.24;96724.98;1701313;83;22110;-63
2022/10/29 05:45:24;;;;;;;30.13;17.70;;;;;;;4.82;85.17;96728.42;1692902;83;21555;-63
2022/10/29 05:47:59;;;;;;;23.53;15.33;;;;;;;4.86;85.15;96730.66;1712970;83;20989;-63
2022/10/29 05:50:27;;;;;;;25.67;15.57;;;;;;;4.92;85.22;96730.38;1706861;83;21057;-62
2022/10/29 05:52:59;;;;;;;33.53;23.17;;;;;;;4.99;86.13;96728.80;1711695;83;21527;-62
2022/10/29 05:55:27;;;;;;;35.13;22.77;;;;;;;5.04;85.33;96735.00;1706569;83;21626;-62
2022/10/29 05:58:04;;;;;;;95.07;36.47;;;;;;;4.94;84.94;96728.69;1711595;83;21045;-62
2022/10/29 06:00:34;;;;;;;132.20;42.17;;;;;;;4.90;85.43;96727.28;1714734;83;21049;-62
2022/10/29 06:03:01;;;;;;;154.80;52.33;;;;;;;4.95;85.13;96734.37;1722525;83;21046;-62
2022/10/29 06:05:28;;;;;;;114.83;43.40;;;;;;;5.13;86.11;96726.02;1710987;83;21042;-63
2022/10/29 06:07:57;;;;;;;71.93;31.50;;;;;;;5.28;86.24;96729.38;1706485;83;21007;-63
2022/10/29 06:10:26;;;;;;;33.20;20.20;;;;;;;5.43;86.38;96736.66;1708410;83;21060;-63
2022/10/29 06:12:53;;;;;;;25.23;18.33;;;;;;;5.57;86.44;96731.70;1716727;83;21042;-63
2022/10/29 06:15:20;;;;;;;25.37;16.13;;;;;;;5.73;86.40;96736.80;1717512;83;21492;-63
2022/10/29 06:17:48;;;;;;;17.50;11.33;;;;;;;5.88;86.17;96735.76;1706561;83;21085;-63
2022/10/29 06:20:19;;;;;;;4.33;3.03;;;;;;;5.95;85.61;96737.67;1703050;83;21106;-63
2022/10/29 06:22:46;;;;;;;20.03;13.13;;;;;;;6.02;85.42;96742.17;1710597;83;21106;-62
2022/10/29 06:25:13;;;;;;;12.90;9.53;;;;;;;6.15;86.43;96734.48;1717435;83;21113;-62
2022/10/29 06:27:39;;;;;;;14.60;10.03;;;;;;;6.29;86.85;96737.80;1724363;83;21085;-63
2022/10/29 06:30:08;;;;;;;9.80;6.20;;;;;;;6.39;85.98;96737.95;1717545;83;21022;-63
2022/10/29 06:32:34;;;;;;;10.67;4.57;;;;;;;6.44;85.87;96742.41;1706571;83;21524;-63
2022/10/29 06:35:01;;;;;;;9.43;5.80;;;;;;;6.54;86.23;96738.63;1720635;83;21106;-62
2022/10/29 06:37:32;;;;;;;8.13;6.00;;;;;;;6.71;86.61;96735.40;1708237;83;20995;-63
2022/10/29 06:39:57;;;;;;;9.97;6.20;;;;;;;6.96;86.80;96730.95;1705969;83;21113;-62
2022/10/29 06:42:23;;;;;;;7.43;5.90;;;;;;;7.17;86.31;96727.27;1711947;83;21018;-62
2022/10/29 06:44:50;;;;;;;10.63;7.43;;;;;;;7.30;85.94;96732.25;1720955;83;21011;-62
2022/10/29 06:47:17;;;;;;;9.73;6.90;;;;;;;7.53;86.14;96736.05;1720704;83;21034;-63
2022/10/29 06:49:43;;;;;;;10.17;8.27;;;;;;;7.74;85.87;96732.77;1705573;83;20974;-62
2022/10/29 06:52:10;;;;;;;13.47;8.37;;;;;;;7.91;85.22;96730.73;1711947;83;21082;-62
2022/10/29 06:54:37;;;;;;;10.87;7.23;;;;;;;8.09;85.12;96730.02;1705326;83;21141;-62
2022/10/29 06:57:03;;;;;;;14.37;6.60;;;;;;;8.23;84.56;96730.60;1705285;83;21061;-63
2022/10/29 06:59:30;;;;;;;13.80;8.70;;;;;;;8.38;83.95;96727.66;1707308;83;21054;-62
2022/10/29 07:01:56;;;;;;;7.00;5.17;;;;;;;8.44;83.73;96733.90;1716650;83;21579;-63
2022/10/29 07:04:23;;;;;;;8.63;4.33;;;;;;;8.56;83.55;96719.94;1701037;83;21042;-63
2022/10/29 07:06:50;;;;;;;14.90;6.27;;;;;;;8.52;82.74;96723.87;1703985;83;21584;-64
2022/10/29 07:09:16;;;;;;;11.00;6.73;;;;;;;8.53;83.23;96722.55;1710454;83;21547;-63
2022/10/29 07:11:43;;;;;;;12.87;7.87;;;;;;;8.61;83.64;96723.48;1721012;83;21066;-63
2022/10/29 07:14:10;;;;;;;12.37;8.60;;;;;;;8.71;83.67;96719.17;1709082;83;21112;-62
2022/10/29 07:16:37;;;;;;;12.03;8.20;;;;;;;8.82;83.46;96710.02;1703110;83;21042;-62
2022/10/29 07:19:05;;;;;;;12.63;8.17;;;;;;;8.87;83.27;96710.52;1700027;83;21540;-62
2022/10/29 07:21:33;;;;;;;11.17;6.97;;;;;;;9.00;83.58;96702.25;1712821;83;21025;-62
2022/10/29 07:24:00;;;;;;;10.43;5.43;;;;;;;9.15;83.74;96700.55;1707009;83;21132;-62
2022/10/29 07:26:27;;;;;;;10.40;6.17;;;;;;;9.35;84.09;96693.64;1705921;83;21141;-62
2022/10/29 07:28:56;;;;;;;13.53;7.93;;;;;;;9.55;83.82;96693.70;1717046;83;21508;-63
2022/10/29 07:31:23;;;;;;;16.53;6.93;;;;;;;9.75;83.74;96700.32;1711909;83;21042;-63
2022/10/29 07:33:50;;;;;;;9.77;5.57;;;;;;;9.91;81.89;96689.39;1708469;83;21034;-63
2022/10/29 07:36:17;;;;;;;13.00;6.17;;;;;;;10.06;82.48;96687.22;1711630;83;21022;-62
2022/10/29 07:38:44;;;;;;;6.87;3.87;;;;;;;10.17;82.07;96688.95;1706535;83;21585;-63
2022/10/29 07:41:11;;;;;;;6.07;3.70;;;;;;;10.34;82.16;96683.73;1707810;83;21595;-62
2022/10/29 07:43:37;;;;;;;9.35;4.55;;;;;;;10.50;81.97;96681.08;1705487;83;21061;-62
2022/10/29 07:46:05;;;;;;;14.40;7.05;;;;;;;10.65;81.54;96678.42;1713513;83;21634;-63
2022/10/29 07:48:31;;;;;;;14.75;6.20;;;;;;;10.75;81.03;96675.33;1716836;83;21026;-62
2022/10/29 07:51:00;;;;;;;10.25;5.70;;;;;;;10.74;80.36;96673.13;1718219;83;21480;-63
2022/10/29 07:53:30;;;;;;;10.03;5.20;;;;;;;10.70;80.02;96683.25;1707689;83;21041;-63
2022/10/29 07:55:57;;;;;;;11.83;5.12;;;;;;;10.66;80.26;96677.55;1704751;83;21042;-62
2022/10/29 07:58:25;;;;;;;10.72;5.42;;;;;;;10.75;80.67;96675.33;1713822;83;21504;-63
2022/10/29 08:00:52;;;;;;;9.30;3.55;;;;;;;10.88;80.87;96673.53;1706747;83;21148;-62
2022/10/29 08:03:19;;;;;;;5.60;2.65;;;;;;;11.02;80.94;96679.22;1706520;83;21071;-62
2022/10/29 08:05:48;;;;;;;5.53;2.70;;;;;;;11.24;81.14;96672.11;1702608;83;21046;-62
2022/10/29 08:08:14;;;;;;;4.37;2.60;;;;;;;11.51;81.27;96665.38;1722186;83;21022;-62
2022/10/29 08:10:41;;;;;;;7.58;3.12;;;;;;;11.76;80.69;96658.19;1700303;83;21077;-63
2022/10/29 08:13:07;;;;;;;7.12;2.95;;;;;;;11.99;80.29;96656.74;1706784;83;21085;-63
2022/10/29 08:15:35;;;;;;;4.90;2.12;;;;;;;12.22;80.25;96653.91;1722175;83;21523;-62
2022/10/29 08:18:07;;;;;;;4.05;2.33;;;;;;;12.46;79.89;96661.66;1706167;83;21085;-63
2022/10/29 08:20:34;;;;;;;4.87;2.70;;;;;;;12.71;79.62;96658.78;1711504;83;21046;-62
2022/10/29 08:23:00;;;;;;;9.30;5.12;;;;;;;12.96;78.71;96659.41;1708653;83;21527;-63
2022/10/29 08:25:27;;;;;;;8.70;3.60;;;;;;;13.09;76.09;96657.50;1703515;83;21082;-63
2022/10/29 08:28:02;;;;;;;5.97;3.20;;;;;;;13.25;76.68;96656.41;1704909;83;21513;-63
2022/10/29 08:30:30;;;;;;;6.30;3.12;;;;;;;13.40;74.44;96654.05;1716192;83;21496;-63
2022/10/29 08:32:56;;;;;;;12.80;3.83;;;;;;;13.39;74.69;96654.97;1716294;83;21089;-63
2022/10/29 08:35:23;;;;;;;3.42;1.98;;;;;;;13.50;75.05;96653.49;1703524;83;21089;-63
2022/10/29 08:37:50;;;;;;;3.33;2.00;;;;;;;13.57;74.26;96643.23;1714008;83;21077;-63
2022/10/29 08:40:28;;;;;;;2.45;1.67;;;;;;;13.62;73.71;96641.40;1708252;83;21002;-62
2022/10/29 08:43:26;;;;;;;5.45;1.90;;;;;;;13.66;73.87;96635.59;1722065;83;21077;-62
2022/10/29 08:45:54;;;;;;;4.45;1.42;;;;;;;13.80;73.85;96641.13;1708377;83;21045;-62
2022/10/29 08:48:36;;;;;;;5.90;1.50;;;;;;;14.06;73.77;96630.56;1703014;83;21014;-62
2022/10/29 08:51:35;;;;;;;2.35;1.30;;;;;;;14.24;73.01;96630.75;1724205;83;21073;-62
2022/10/29 08:54:02;;;;;;;3.50;1.22;;;;;;;14.40;70.39;96634.02;1711954;83;21038;-62
2022/10/29 08:56:38;;;;;;;3.75;1.37;;;;;;;14.54;70.11;96625.41;1718517;83;21069;-62
2022/10/29 08:59:24;;;;;;;5.90;1.20;;;;;;;14.69;69.59;96622.47;1713061;83;21026;-63
2022/10/29 09:01:52;;;;;;;1.45;0.98;;;;;;;14.82;68.24;96627.56;1706964;83;21033;-63
2022/10/29 09:04:34;;;;;;;1.60;1.02;;;;;;;14.97;67.05;96635.66;1711917;83;21042;-62
2022/10/29 09:07:28;;;;;;;5.40;1.70;;;;;;;15.12;67.29;96633.61;1711181;83;21045;-62
2022/10/29 09:10:24;;;;;;;4.08;1.17;;;;;;;15.25;67.84;96629.38;1705552;83;21153;-63
2022/10/29 09:13:39;;;;;;;2.95;1.22;;;;;;;15.42;66.36;96627.25;1717415;83;21121;-63
2022/10/29 09:16:26;;;;;;;4.92;1.12;;;;;;;15.62;66.41;96617.94;1722452;83;21069;-62
2022/10/29 09:19:01;;;;;;;4.83;1.07;;;;;;;15.82;64.92;96613.53;1709093;83;20994;-63
2022/10/29 09:21:45;;;;;;;3.83;1.12;;;;;;;15.98;65.78;96614.95;1712292;83;21014;-63
2022/10/29 09:24:20;;;;;;;5.10;2.02;;;;;;;16.11;65.47;96610.20;1709632;83;21109;-62
2022/10/29 09:27:05;;;;;;;4.45;1.30;;;;;;;16.41;64.64;96613.44;1717040;83;21583;-62
2022/10/29 09:29:52;;;;;;;5.55;1.40;;;;;;;16.41;64.64;96613.44;1717513;83;21025;-62
2022/10/29 09:32:49;;;;;;;3.20;1.37;;;;;;;16.60;64.42;96612.48;1700066;83;21645;-62
2022/10/29 09:35:18;;;;;;;4.47;1.95;;;;;;;16.74;63.87;96613.94;1716901;83;21523;-62
2022/10/29 09:38:01;;;;;;;1.98;1.10;;;;;;;16.87;62.48;96616.72;1712047;83;21343;-62
2022/10/29 09:40:42;;;;;;;2.83;1.52;;;;;;;16.93;63.10;96602.34;1700636;83;21524;-63
2022/10/29 09:43:35;;;;;;;4.22;1.55;;;;;;;17.01;63.16;96602.99;1711987;83;21164;-62
2022/10/29 09:46:38;;;;;;;3.92;1.80;;;;;;;17.11;62.27;96594.28;1713035;83;21061;-62
2022/10/29 09:49:36;;;;;;;4.03;2.27;;;;;;;17.18;61.24;96595.86;1700849;83;21041;-60
2022/10/29 09:52:25;;;;;;;5.00;2.27;;;;;;;17.38;61.60;96600.62;1711440;83;21057;-60
2022/10/29 09:54:53;;;;;;;3.30;2.52;;;;;;;17.53;60.90;96597.49;1716517;83;21030;-61
2022/10/29 09:57:24;;;;;;;4.95;2.27;;;;;;;17.74;61.07;96586.18;1705375;83;21097;-61
2022/10/29 10:00:08;;;;;;;7.03;3.00;;;;;;;17.91;59.45;96582.12;1712318;83;21107;-60
2022/10/29 10:03:17;;;;;;;3.42;2.52;;;;;;;18.11;57.63;96588.16;1713307;83;21086;-61
2022/10/29 10:06:03;;;;;;;4.30;2.60;;;;;;;18.43;58.31;96583.09;1712260;83;21516;-60
2022/10/29 10:08:32;;;;;;;5.58;2.27;;;;;;;18.88;58.40;96580.26;1707669;83;21034;-60
2022/10/29 10:11:03;;;;;;;5.37;1.95;;;;;;;19.30;56.60;96574.25;1711151;83;21126;-60
2022/10/29 10:13:52;;;;;;;3.42;2.17;;;;;;;19.61;55.00;96569.48;1712179;83;21065;-61
2022/10/29 10:16:32;;;;;;;4.47;2.10;;;;;;;19.94;55.24;96563.77;1710852;83;21085;-61
2022/10/29 10:18:59;;;;;;;5.15;2.42;;;;;;;20.28;53.10;96559.22;1711723;83;20986;-60
2022/10/29 10:21:29;;;;;;;3.83;2.72;;;;;;;20.50;53.54;96555.65;1714211;83;21120;-60
2022/10/29 10:23:58;;;;;;;4.78;2.52;;;;;;;20.89;54.64;96549.52;1712615;83;21081;-61
2022/10/29 10:26:43;;;;;;;8.43;3.10;;;;;;;21.33;52.44;96546.17;1714409;83;21085;-61
2022/10/29 10:29:20;;;;;;;5.97;3.17;;;;;;;21.65;49.96;96549.22;1706175;83;21030;-61
2022/10/29 10:31:59;;;;;;;5.22;3.02;;;;;;;21.99;48.16;96543.55;1708197;83;21078;-61
2022/10/29 10:34:36;;;;;;;4.62;2.70;;;;;;;22.08;47.42;96540.42;1700296;83;21093;-61
2022/10/29 10:37:11;;;;;;;4.08;2.70;;;;;;;22.35;46.85;96538.67;1710820;83;21006;-61
2022/10/29 10:39:52;;;;;;;4.40;3.00;;;;;;;22.79;46.87;96531.03;1710784;83;21050;-62
2022/10/29 10:42:35;;;;;;;7.58;3.12;;;;;;;23.10;46.21;96530.30;1711616;83;21049;-60
2022/10/29 10:45:14;;;;;;;5.37;3.30;;;;;;;23.35;44.60;96524.94;1708063;83;21041;-61
2022/10/29 10:47:49;;;;;;;4.67;3.08;;;;;;;23.43;44.64;96519.99;1711420;83;21030;-63
2022/10/29 10:50:21;;;;;;;4.95;3.40;;;;;;;23.74;45.18;96520.56;1702360;83;21085;-63
2022/10/29 10:52:49;;;;;;;4.62;3.12;;;;;;;23.58;42.41;96516.07;1707296;83;21077;-63
2022/10/29 10:55:32;;;;;;;4.60;2.72;;;;;;;23.50;43.67;96518.70;1712712;83;20994;-62
2022/10/29 10:58:21;;;;;;;6.58;3.40;;;;;;;23.50;43.14;96517.84;1708039;83;21508;-62
2022/10/29 11:00:57;;;;;;;5.45;2.80;;;;;;;23.51;42.91;96519.12;1711918;83;21077;-62
2022/10/29 11:03:33;;;;;;;6.05;3.20;;;;;;;23.59;43.46;96519.17;1708902;83;20998;-63
2022/10/29 11:06:12;;;;;;;3.52;3.17;;;;;;;23.73;43.27;96516.11;1716681;83;21122;-62
2022/10/29 11:09:26;;;;;;;4.20;2.90;;;;;;;23.95;42.98;96514.42;1709909;83;21006;-62
2022/10/29 11:12:05;;;;;;;;;;;;;;;24.26;43.20;96511.29;1721364;83;21082;-63
2022/10/29 11:14:37;;;;;;;4.15;2.60;;;;;;;24.29;41.09;96510.23;1711010;83;20395;-63
2022/10/29 11:17:07;;;;;;;4.20;3.20;;;;;;;24.34;41.48;96518.48;1705621;83;21089;-63
2022/10/29 11:19:47;;;;;;;6.47;2.98;;;;;;;24.53;40.53;96507.97;1699887;83;21548;-63
2022/10/29 11:22:30;;;;;;;5.65;3.05;;;;;;;24.74;41.76;96503.10;1700640;83;21096;-63
2022/10/29 11:25:17;;;;;;;4.25;3.40;;;;;;;24.94;39.68;96500.54;1721200;83;21061;-63
2022/10/29 11:28:16;;;;;;;5.40;3.47;;;;;;;25.14;39.49;96493.42;1716437;83;21540;-63
2022/10/29 11:30:51;;;;;;;5.12;3.65;;;;;;;25.22;39.81;96491.62;1711422;83;21073;-63
2022/10/29 11:33:38;;;;;;;5.47;4.22;;;;;;;25.48;39.36;96498.09;1706104;83;21038;-63
2022/10/29 11:36:22;;;;;;;5.92;3.85;;;;;;;25.80;39.31;96487.89;1709139;83;21054;-63
2022/10/29 11:38:57;;;;;;;5.90;3.83;;;;;;;26.00;38.02;96493.88;1706749;83;21050;-63
2022/10/29 11:41:52;;;;;;;6.03;3.60;;;;;;;26.11;37.47;96483.23;1708999;83;21038;-63
2022/10/29 11:44:20;;;;;;;4.85;2.98;;;;;;;26.21;38.38;96490.25;1706607;83;21006;-64
2022/10/29 11:47:17;;;;;;;4.35;3.22;;;;;;;26.30;37.22;96482.36;1717487;83;21539;-62
2022/10/29 11:50:10;;;;;;;5.60;3.10;;;;;;;26.33;37.41;96474.06;1710354;83;21559;-63
2022/10/29 11:53:10;;;;;;;5.42;3.10;;;;;;;26.46;36.77;96475.44;1718820;83;21570;-63
2022/10/29 11:56:12;;;;;;;4.75;3.25;;;;;;;26.43;36.84;96476.12;1657028;86;21111;-62
2022/10/29 11:58:44;;;;;;;4.12;3.12;;;;;;;26.32;36.19;96473.66;1718811;83;21038;-63
2022/10/29 12:01:25;;;;;;;4.40;3.27;;;;;;;26.54;36.72;96470.89;1706895;83;21074;-63